createdAt,value
2023-04-30T00:00:15.191Z,28.8462
2023-04-30T00:01:17.526Z,29.3462
2023-04-30T00:02:19.882Z,28.5500
2023-04-30T00:03:22.243Z,28.8615
2023-04-30T00:04:24.690Z,29.1000
2023-04-30T00:05:27.056Z,29.9083
2023-04-30T00:06:29.216Z,30.1750
2023-04-30T00:07:31.551Z,30.2250
2023-04-30T00:08:33.849Z,27.3692
2023-04-30T00:09:36.280Z,28.2846
2023-04-30T00:10:38.536Z,29.8000
2023-04-30T00:11:40.879Z,30.0462
2023-04-30T00:12:43.227Z,30.4231
2023-04-30T00:13:45.532Z,29.6167
2023-04-30T00:14:47.882Z,29.0615
2023-04-30T00:15:50.210Z,28.9000
2023-04-30T00:16:52.573Z,30.7385
2023-04-30T00:17:54.973Z,29.1077
2023-04-30T00:18:57.301Z,29.4000
2023-04-30T00:19:59.574Z,30.3917
2023-04-30T00:21:01.897Z,28.9462
2023-04-30T00:22:04.320Z,28.4000
2023-04-30T00:23:06.595Z,26.8923
2023-04-30T00:24:08.925Z,29.0538
2023-04-30T00:25:11.258Z,29.3923
2023-04-30T00:26:13.583Z,30.0231
2023-04-30T00:27:15.981Z,27.7462
2023-04-30T00:28:18.267Z,30.5923
2023-04-30T00:29:20.601Z,29.9462
2023-04-30T00:30:22.936Z,28.5692
2023-04-30T00:31:25.351Z,29.7154
2023-04-30T00:32:27.680Z,30.5462
2023-04-30T00:33:29.963Z,31.0615
2023-04-30T00:34:32.334Z,29.9846
2023-04-30T00:35:34.608Z,28.6000
2023-04-30T00:36:37.049Z,30.8308
2023-04-30T00:37:39.324Z,27.9846
2023-04-30T00:38:41.683Z,30.0692
2023-04-30T00:39:44.008Z,29.3231
2023-04-30T00:40:46.294Z,30.3154
2023-04-30T00:41:48.807Z,29.1154
2023-04-30T00:42:50.980Z,28.2833
2023-04-30T00:43:53.310Z,28.4833
2023-04-30T00:44:55.671Z,29.0385
2023-04-30T00:45:58.031Z,30.3077
2023-04-30T00:47:00.386Z,30.9385
2023-04-30T00:48:02.771Z,28.7077
2023-04-30T00:49:05.096Z,29.5154
2023-04-30T00:50:07.400Z,30.4231
2023-04-30T00:51:09.672Z,29.9538
2023-04-30T00:52:12.044Z,27.9923
2023-04-30T00:53:14.356Z,28.6385
2023-04-30T00:54:16.728Z,29.1231
2023-04-30T00:55:19.054Z,29.3231
2023-04-30T00:56:21.411Z,30.2538
2023-04-30T00:57:23.719Z,30.2462
2023-04-30T00:58:26.102Z,30.1308
2023-04-30T00:59:28.387Z,31.9308
2023-04-30T01:00:30.811Z,30.7917
2023-04-30T01:01:33.177Z,28.8923
2023-04-30T01:02:35.490Z,27.7538
2023-04-30T01:03:37.810Z,27.7077
2023-04-30T01:04:40.084Z,30.5154
2023-04-30T01:05:42.483Z,30.2583
2023-04-30T01:06:44.875Z,30.4846
2023-04-30T01:07:47.125Z,32.1308
2023-04-30T01:08:49.485Z,30.4462
2023-04-30T01:09:51.962Z,32.3154
2023-04-30T01:10:54.156Z,31.0308
2023-04-30T01:11:56.473Z,29.2615
2023-04-30T01:12:58.787Z,31.2923
2023-04-30T01:14:01.142Z,28.2846
2023-04-30T01:15:03.453Z,30.5154
2023-04-30T01:16:05.817Z,29.5154
2023-04-30T01:17:08.146Z,29.1231
2023-04-30T01:18:10.559Z,31.3000
2023-04-30T01:19:12.909Z,31.4077
2023-04-30T01:20:15.189Z,30.4769
2023-04-30T01:21:17.518Z,32.1846
2023-04-30T01:22:19.821Z,30.8154
2023-04-30T01:23:22.188Z,31.3308
2023-04-30T01:24:24.499Z,31.3500
2023-04-30T01:25:26.846Z,30.3308
2023-04-30T01:26:29.193Z,30.6769
2023-04-30T01:27:31.504Z,30.4538
2023-04-30T01:28:33.850Z,29.8917
2023-04-30T01:29:36.185Z,31.6923
2023-04-30T01:30:38.544Z,32.1000
2023-04-30T01:31:40.925Z,30.5769
2023-04-30T01:32:43.229Z,32.6154
2023-04-30T01:33:45.692Z,30.7615
2023-04-30T01:34:47.966Z,30.2846
2023-04-30T01:35:50.251Z,31.0727
2023-04-30T01:36:52.706Z,31.9077
2023-04-30T01:37:54.909Z,31.4231
2023-04-30T01:38:57.219Z,31.0385
2023-04-30T01:39:59.589Z,31.2385
2023-04-30T01:41:01.914Z,32.0385
2023-04-30T01:42:04.247Z,29.9500
2023-04-30T01:43:06.604Z,31.1231
2023-04-30T01:44:08.927Z,30.4769
2023-04-30T01:45:11.280Z,31.2923
2023-04-30T01:46:13.659Z,30.9077
2023-04-30T01:47:16.070Z,30.6462
2023-04-30T01:48:18.376Z,28.8923
2023-04-30T01:49:20.621Z,31.4000
2023-04-30T01:50:22.995Z,30.8692
2023-04-30T01:51:25.284Z,30.7250
2023-04-30T01:52:27.653Z,30.2077
2023-04-30T01:53:29.988Z,30.4538
2023-04-30T01:54:32.315Z,31.4385
2023-04-30T01:55:34.700Z,31.6769
2023-04-30T01:56:37.095Z,31.1615
2023-04-30T01:57:39.368Z,32.0462
2023-04-30T01:58:41.737Z,30.7769
2023-04-30T01:59:44.111Z,31.9385
2023-04-30T02:00:46.380Z,31.6538
2023-04-30T02:01:48.776Z,31.6692
2023-04-30T02:02:58.755Z,30.7462
2023-04-30T02:03:53.540Z,31.5364
2023-04-30T02:04:55.745Z,30.7917
2023-04-30T02:05:58.127Z,31.7462
2023-04-30T02:07:00.439Z,30.3615
2023-04-30T02:08:02.783Z,30.8231
2023-04-30T02:09:05.170Z,31.0692
2023-04-30T02:10:07.466Z,31.4385
2023-04-30T02:11:09.794Z,32.8615
2023-04-30T02:12:12.133Z,32.5308
2023-04-30T02:13:14.463Z,32.1769
2023-04-30T02:14:16.821Z,31.9308
2023-04-30T02:15:19.251Z,30.9615
2023-04-30T02:16:21.519Z,31.6385
2023-04-30T02:17:23.858Z,31.5538
2023-04-30T02:18:26.163Z,31.8769
2023-04-30T02:19:28.557Z,32.4154
2023-04-30T02:20:30.855Z,31.2538
2023-04-30T02:21:33.195Z,31.5231
2023-04-30T02:22:35.542Z,31.1077
2023-04-30T02:23:37.870Z,30.5769
2023-04-30T02:24:40.268Z,29.0462
2023-04-30T02:25:42.544Z,30.4231
2023-04-30T02:26:44.920Z,29.2538
2023-04-30T02:27:47.252Z,28.7769
2023-04-30T02:28:49.589Z,29.9615
2023-04-30T02:29:52.146Z,32.3667
2023-04-30T02:30:54.245Z,30.8833
2023-04-30T02:31:56.732Z,31.1000
2023-04-30T02:32:58.966Z,29.6385
2023-04-30T02:34:01.279Z,30.6385
2023-04-30T02:35:03.632Z,29.9692
2023-04-30T02:36:05.957Z,31.1923
2023-04-30T02:37:08.329Z,31.3692
2023-04-30T02:38:10.657Z,30.2692
2023-04-30T02:39:12.992Z,29.8615
2023-04-30T02:40:15.306Z,30.0538
2023-04-30T02:41:17.662Z,30.2538
2023-04-30T02:42:20.013Z,30.8692
2023-04-30T02:43:22.327Z,31.7538
2023-04-30T02:44:24.693Z,32.6538
2023-04-30T02:45:27.017Z,32.1077
2023-04-30T02:46:29.488Z,31.2692
2023-04-30T02:47:31.699Z,31.3833
2023-04-30T02:48:34.088Z,31.7308
2023-04-30T02:49:36.417Z,30.7615
2023-04-30T02:50:38.717Z,32.0385
2023-04-30T02:51:41.093Z,30.3615
2023-04-30T02:52:43.465Z,30.7000
2023-04-30T02:53:45.732Z,30.3615
2023-04-30T02:54:48.100Z,29.9231
2023-04-30T02:55:50.429Z,30.0538
2023-04-30T02:56:52.783Z,30.6769
2023-04-30T02:57:55.114Z,32.1231
2023-04-30T02:58:57.465Z,29.3000
2023-04-30T02:59:59.775Z,32.7231
2023-04-30T03:01:02.165Z,30.7308
2023-04-30T03:02:04.552Z,28.5000
2023-04-30T03:03:06.982Z,30.3846
2023-04-30T03:04:09.154Z,31.1923
2023-04-30T03:05:11.497Z,31.4231
2023-04-30T03:06:13.867Z,31.8923
2023-04-30T03:07:16.194Z,31.3692
2023-04-30T03:08:18.663Z,31.3923
2023-04-30T03:09:20.854Z,30.1385
2023-04-30T03:10:23.210Z,31.1385
2023-04-30T03:11:25.583Z,31.2231
2023-04-30T03:12:27.903Z,31.1923
2023-04-30T03:13:30.238Z,31.3308
2023-04-30T03:14:32.569Z,30.8692
2023-04-30T03:15:34.916Z,31.7385
2023-04-30T03:16:37.267Z,29.2692
2023-04-30T03:17:39.639Z,29.8615
2023-04-30T03:18:41.927Z,29.4769
2023-04-30T03:19:44.311Z,30.7769
2023-04-30T03:20:46.669Z,32.2538
2023-04-30T03:21:49.002Z,31.5231
2023-04-30T03:22:51.334Z,31.1000
2023-04-30T03:23:53.641Z,30.7231
2023-04-30T03:24:56.021Z,29.9000
2023-04-30T03:25:58.333Z,30.8538
2023-04-30T03:27:00.719Z,32.0000
2023-04-30T03:28:03.068Z,31.6154
2023-04-30T03:29:05.393Z,29.4308
2023-04-30T03:30:07.756Z,29.2923
2023-04-30T03:31:10.100Z,30.6769
2023-04-30T03:32:12.409Z,30.0000
2023-04-30T03:33:14.757Z,29.2615
2023-04-30T03:34:17.060Z,28.4385
2023-04-30T03:35:19.425Z,30.2462
2023-04-30T03:36:21.741Z,29.7615
2023-04-30T03:37:24.090Z,29.3917
2023-04-30T03:38:26.433Z,29.1000
2023-04-30T03:39:28.760Z,29.8923
2023-04-30T03:40:31.116Z,28.8308
2023-04-30T03:41:33.469Z,31.7154
2023-04-30T03:42:35.779Z,30.4231
2023-04-30T03:43:38.255Z,31.5231
2023-04-30T03:44:40.472Z,29.6462
2023-04-30T03:45:42.914Z,29.5538
2023-04-30T03:46:45.442Z,31.3846
2023-04-30T03:47:47.507Z,31.4167
2023-04-30T03:48:49.837Z,31.0923
2023-04-30T03:49:52.388Z,31.0308
2023-04-30T03:50:54.524Z,29.6583
2023-04-30T03:51:56.861Z,31.0615
2023-04-30T03:52:59.196Z,31.7083
2023-04-30T03:54:01.554Z,29.5154
2023-04-30T03:55:03.891Z,31.4538
2023-04-30T03:56:06.179Z,32.9462
2023-04-30T03:57:08.558Z,31.7231
2023-04-30T03:58:10.875Z,31.8231
2023-04-30T03:59:13.241Z,32.1538
2023-04-30T04:00:15.563Z,32.6000
2023-04-30T04:01:17.937Z,30.2077
2023-04-30T04:02:20.295Z,29.2154
2023-04-30T04:03:22.575Z,30.2769
2023-04-30T04:04:24.962Z,31.8462
2023-04-30T04:05:27.309Z,30.2750
2023-04-30T04:06:29.657Z,32.0692
2023-04-30T04:07:31.950Z,31.2615
2023-04-30T04:08:34.288Z,31.2000
2023-04-30T04:09:36.694Z,29.9692
2023-04-30T04:10:38.958Z,30.7154
2023-04-30T04:11:41.313Z,32.9500
2023-04-30T04:12:43.615Z,31.1833
2023-04-30T04:13:45.994Z,31.4000
2023-04-30T04:14:48.317Z,31.2000
2023-04-30T04:15:50.737Z,31.6154
2023-04-30T04:16:52.967Z,31.5385
2023-04-30T04:17:55.353Z,31.7846
2023-04-30T04:18:57.674Z,31.8167
2023-04-30T04:19:59.997Z,30.1385
2023-04-30T04:21:02.332Z,32.9385
2023-04-30T04:22:04.666Z,31.9462
2023-04-30T04:23:07.135Z,32.5769
2023-04-30T04:24:09.333Z,30.4923
2023-04-30T04:25:11.678Z,29.3231
2023-04-30T04:26:14.048Z,30.0077
2023-04-30T04:27:16.356Z,31.4615
2023-04-30T04:28:18.662Z,31.8923
2023-04-30T04:29:21.078Z,31.3750
2023-04-30T04:30:23.340Z,28.1846
2023-04-30T04:31:25.764Z,33.2417
2023-04-30T04:32:28.094Z,32.6923
2023-04-30T04:33:30.385Z,31.9692
2023-04-30T04:34:32.744Z,33.2077
2023-04-30T04:35:35.053Z,33.3692
2023-04-30T04:36:37.453Z,33.9846
2023-04-30T04:37:39.701Z,33.1833
2023-04-30T04:38:42.184Z,31.9000
2023-04-30T04:39:44.398Z,33.1385
2023-04-30T04:40:46.951Z,33.3308
2023-04-30T04:41:49.037Z,32.2000
2023-04-30T04:42:51.378Z,32.1000
2023-04-30T04:43:53.738Z,30.6154
2023-04-30T04:44:56.098Z,31.5538
2023-04-30T04:45:58.395Z,31.3769
2023-04-30T04:47:00.716Z,32.7923
2023-04-30T04:48:03.139Z,33.5308
2023-04-30T04:49:05.399Z,32.6923
2023-04-30T04:50:07.777Z,31.5000
2023-04-30T04:51:10.068Z,33.5846
2023-04-30T04:52:12.393Z,31.6462
2023-04-30T04:53:14.799Z,32.4692
2023-04-30T04:54:17.192Z,32.5385
2023-04-30T04:55:19.507Z,34.8923
2023-04-30T04:56:21.771Z,33.7462
2023-04-30T04:57:24.137Z,33.5462
2023-04-30T04:58:26.513Z,32.6615
2023-04-30T04:59:28.780Z,34.1231
2023-04-30T05:00:31.103Z,32.5385
2023-04-30T05:01:33.436Z,30.7833
2023-04-30T05:02:35.978Z,32.7769
2023-04-30T05:03:38.289Z,32.6308
2023-04-30T05:04:40.420Z,33.2308
2023-04-30T05:05:42.908Z,33.4538
2023-04-30T05:06:45.201Z,33.4308
2023-04-30T05:07:47.466Z,33.2077
2023-04-30T05:08:49.788Z,33.5077
2023-04-30T05:09:52.160Z,30.6615
2023-04-30T05:10:54.442Z,33.2923
2023-04-30T05:11:56.777Z,32.5250
2023-04-30T05:12:59.196Z,31.0077
2023-04-30T05:14:01.432Z,31.9333
2023-04-30T05:15:03.770Z,33.1000
2023-04-30T05:16:06.146Z,33.2923
2023-04-30T05:17:08.444Z,33.8077
2023-04-30T05:18:10.817Z,32.8000
2023-04-30T05:19:13.113Z,33.4250
2023-04-30T05:20:15.561Z,32.2462
2023-04-30T05:21:17.818Z,32.0385
2023-04-30T05:22:20.157Z,33.3923
2023-04-30T05:23:22.464Z,33.4077
2023-04-30T05:24:24.778Z,32.8923
2023-04-30T05:25:27.238Z,33.1462
2023-04-30T05:26:29.473Z,32.9692
2023-04-30T05:27:31.913Z,32.6154
2023-04-30T05:28:34.169Z,32.6615
2023-04-30T05:29:36.480Z,31.7923
2023-04-30T05:30:38.818Z,32.3615
2023-04-30T05:31:41.151Z,31.8250
2023-04-30T05:32:43.700Z,32.6308
2023-04-30T05:33:46.159Z,31.4917
2023-04-30T05:34:48.468Z,33.4833
2023-04-30T05:35:50.452Z,29.3083
2023-04-30T05:36:52.974Z,29.4923
2023-04-30T05:37:55.223Z,31.9417
2023-04-30T05:38:57.474Z,32.2846
2023-04-30T05:40:00.001Z,31.2231
2023-04-30T05:41:02.324Z,32.4000
2023-04-30T05:42:04.467Z,31.2909
2023-04-30T05:43:06.816Z,30.8615
2023-04-30T05:44:09.499Z,31.2615
2023-04-30T05:45:11.593Z,31.5750
2023-04-30T05:46:14.037Z,30.9077
2023-04-30T05:47:16.152Z,32.5667
2023-04-30T05:48:18.514Z,31.5692
2023-04-30T05:49:20.876Z,31.5462
2023-04-30T05:50:23.154Z,32.0538
2023-04-30T05:51:25.742Z,32.0538
2023-04-30T05:52:28.287Z,33.1667
2023-04-30T05:53:30.197Z,31.8167
2023-04-30T05:54:32.508Z,32.4692
2023-04-30T05:55:34.892Z,31.4538
2023-04-30T05:56:37.187Z,31.3000
2023-04-30T05:57:39.519Z,30.3000
2023-04-30T05:58:41.947Z,31.6769
2023-04-30T05:59:44.204Z,30.9385
2023-04-30T06:00:46.527Z,30.0769
2023-04-30T06:01:49.079Z,30.8308
2023-04-30T06:02:51.300Z,32.1917
2023-04-30T06:03:53.623Z,32.2923
2023-04-30T06:04:56.095Z,31.9154
2023-04-30T06:05:58.407Z,32.8917
2023-04-30T06:07:00.745Z,31.3615
2023-04-30T06:08:02.976Z,29.9000
2023-04-30T06:09:05.393Z,30.2923
2023-04-30T06:10:07.653Z,30.2154
2023-04-30T06:11:09.989Z,31.2462
2023-04-30T06:12:12.395Z,30.3538
2023-04-30T06:13:14.834Z,30.3538
2023-04-30T06:14:17.043Z,31.7615
2023-04-30T06:15:26.869Z,31.2077
2023-04-30T06:16:21.691Z,31.8455
2023-04-30T06:17:24.020Z,30.6692
2023-04-30T06:18:26.358Z,30.5154
2023-04-30T06:19:28.691Z,33.0462
2023-04-30T06:20:31.067Z,31.8846
2023-04-30T06:21:33.400Z,32.3769
2023-04-30T06:22:35.937Z,30.0846
2023-04-30T06:23:38.033Z,31.3833
2023-04-30T06:24:40.390Z,30.4077
2023-04-30T06:25:42.778Z,31.1385
2023-04-30T06:26:45.034Z,30.3833
2023-04-30T06:27:47.412Z,31.1231
2023-04-30T06:28:50.017Z,31.2000
2023-04-30T06:29:52.295Z,30.5000
2023-04-30T06:30:54.432Z,30.7667
2023-04-30T06:31:56.781Z,31.3000
2023-04-30T06:32:59.138Z,31.3538
2023-04-30T06:34:01.449Z,32.2154
2023-04-30T06:35:03.776Z,31.7308
2023-04-30T06:36:06.145Z,31.4385
2023-04-30T06:37:08.448Z,32.3077
2023-04-30T06:38:10.778Z,32.3000
2023-04-30T06:39:13.111Z,32.9538
2023-04-30T06:40:15.456Z,33.6615
2023-04-30T06:41:17.806Z,31.7000
2023-04-30T06:42:20.154Z,31.6231
2023-04-30T06:43:22.479Z,32.3154
2023-04-30T06:44:25.059Z,31.8308
2023-04-30T06:45:27.183Z,32.2333
2023-04-30T06:46:29.647Z,32.2000
2023-04-30T06:47:31.829Z,31.7154
2023-04-30T06:48:34.186Z,31.3077
2023-04-30T06:49:36.480Z,32.9385
2023-04-30T06:50:38.856Z,32.4846
2023-04-30T06:51:41.210Z,32.7077
2023-04-30T06:52:43.530Z,32.0077
2023-04-30T06:53:45.821Z,31.4154
2023-04-30T06:54:48.217Z,32.1615
2023-04-30T06:55:50.531Z,31.5615
2023-04-30T06:56:52.903Z,33.1231
2023-04-30T06:57:55.193Z,32.1769
2023-04-30T06:58:57.534Z,32.3231
2023-04-30T06:59:59.836Z,30.8385
2023-04-30T07:01:02.194Z,30.8385
2023-04-30T07:02:04.541Z,30.4385
2023-04-30T07:03:06.930Z,30.1692
2023-04-30T07:04:09.190Z,31.0615
2023-04-30T07:05:11.827Z,29.8769
2023-04-30T07:06:13.894Z,31.4167
2023-04-30T07:07:16.208Z,31.5077
2023-04-30T07:08:18.557Z,31.7308
2023-04-30T07:09:20.888Z,33.4000
2023-04-30T07:10:23.207Z,33.3154
2023-04-30T07:11:25.544Z,34.8692
2023-04-30T07:12:27.893Z,31.6385
2023-04-30T07:13:30.211Z,32.1231
2023-04-30T07:14:32.550Z,31.6000
2023-04-30T07:15:34.971Z,31.5692
2023-04-30T07:16:37.215Z,30.4231
2023-04-30T07:17:39.644Z,31.3615
2023-04-30T07:18:42.030Z,30.6917
2023-04-30T07:19:44.242Z,30.8077
2023-04-30T07:20:46.574Z,29.2769
2023-04-30T07:21:48.924Z,31.8000
2023-04-30T07:22:51.241Z,32.4308
2023-04-30T07:23:53.620Z,29.3308
2023-04-30T07:24:55.931Z,31.6692
2023-04-30T07:25:58.260Z,31.8923
2023-04-30T07:27:00.677Z,32.6231
2023-04-30T07:28:02.936Z,31.0846
2023-04-30T07:29:05.472Z,31.6583
2023-04-30T07:30:07.659Z,30.8182
2023-04-30T07:31:09.995Z,33.6231
2023-04-30T07:32:12.311Z,35.2231
2023-04-30T07:33:14.703Z,33.9154
2023-04-30T07:34:16.987Z,33.8462
2023-04-30T07:35:19.395Z,31.5615
2023-04-30T07:36:21.646Z,34.2462
2023-04-30T07:37:23.989Z,32.7923
2023-04-30T07:38:26.343Z,32.6385
2023-04-30T07:39:28.675Z,33.3923
2023-04-30T07:40:36.252Z,31.9308
2023-04-30T07:41:33.339Z,31.6636
2023-04-30T07:42:35.847Z,31.4538
2023-04-30T07:43:38.066Z,30.0615
2023-04-30T07:44:40.377Z,32.7385
2023-04-30T07:45:42.869Z,33.2385
2023-04-30T07:46:45.090Z,33.3846
2023-04-30T07:47:47.396Z,34.2308
2023-04-30T07:48:49.782Z,33.9417
2023-04-30T07:49:52.111Z,33.9077
2023-04-30T07:50:54.573Z,33.2308
2023-04-30T07:51:56.955Z,33.4273
2023-04-30T07:52:59.112Z,29.3167
2023-04-30T07:54:01.402Z,29.5538
2023-04-30T07:55:03.772Z,33.2846
2023-04-30T07:56:06.196Z,32.5462
2023-04-30T07:57:08.429Z,33.7923
2023-04-30T07:58:10.824Z,32.7231
2023-04-30T07:59:13.111Z,33.0154
2023-04-30T08:00:15.978Z,32.8615
2023-04-30T08:01:17.809Z,32.1583
2023-04-30T08:02:20.208Z,34.8077
2023-04-30T08:03:22.526Z,31.3692
2023-04-30T08:04:24.941Z,30.0615
2023-04-30T08:05:27.137Z,30.1385
2023-04-30T08:06:29.540Z,31.9231
2023-04-30T08:07:31.820Z,32.4667
2023-04-30T08:08:34.153Z,30.6846
2023-04-30T08:09:36.539Z,30.7769
2023-04-30T08:10:38.856Z,29.1333
2023-04-30T08:11:41.188Z,30.5538
2023-04-30T08:12:43.575Z,30.6846
2023-04-30T08:13:45.845Z,29.1231
2023-04-30T08:14:48.174Z,30.9231
2023-04-30T08:15:50.524Z,30.7917
2023-04-30T08:16:52.975Z,30.8000
2023-04-30T08:17:55.230Z,30.6615
2023-04-30T08:18:57.561Z,31.6615
2023-04-30T08:19:59.873Z,29.3231
2023-04-30T08:21:02.203Z,31.4154
2023-04-30T08:22:04.540Z,31.2462
2023-04-30T08:23:06.921Z,30.1308
2023-04-30T08:24:09.209Z,30.2917
2023-04-30T08:25:11.725Z,32.4154
2023-04-30T08:26:13.893Z,32.7769
2023-04-30T08:27:16.241Z,31.2750
2023-04-30T08:28:18.565Z,30.9750
2023-04-30T08:29:20.936Z,31.0846
2023-04-30T08:30:23.374Z,29.5923
2023-04-30T08:31:25.731Z,28.6923
2023-04-30T08:32:28.021Z,30.8333
2023-04-30T08:33:30.413Z,30.0154
2023-04-30T08:34:32.635Z,31.3231
2023-04-30T08:35:35.008Z,30.6308
2023-04-30T08:36:37.321Z,30.6077
2023-04-30T08:37:39.627Z,31.3077
2023-04-30T08:38:41.959Z,28.5615
2023-04-30T08:39:44.346Z,30.2769
2023-04-30T08:40:51.575Z,29.9615
2023-04-30T08:41:48.962Z,29.3818
2023-04-30T08:42:51.340Z,28.9923
2023-04-30T08:43:53.679Z,26.7308
2023-04-30T08:44:56.025Z,28.1000
2023-04-30T08:45:58.327Z,28.0231
2023-04-30T08:47:00.674Z,28.7231
2023-04-30T08:48:03.154Z,29.5000
2023-04-30T08:49:05.355Z,29.4615
2023-04-30T08:50:07.835Z,29.8923
2023-04-30T08:51:09.988Z,28.2077
2023-04-30T08:52:12.369Z,28.1615
2023-04-30T08:53:14.712Z,28.2000
2023-04-30T08:54:17.016Z,28.8769
2023-04-30T08:55:19.356Z,29.6692
2023-04-30T08:56:23.109Z,30.6000
2023-04-30T08:57:24.032Z,28.2333
2023-04-30T08:58:26.375Z,27.9667
2023-04-30T08:59:28.709Z,26.9000
2023-04-30T09:00:31.134Z,27.5077
2023-04-30T09:01:33.449Z,27.1846
2023-04-30T09:02:35.832Z,27.0500
2023-04-30T09:03:38.182Z,26.1077
2023-04-30T09:04:40.583Z,25.9308
2023-04-30T09:05:42.785Z,26.8000
2023-04-30T09:06:45.201Z,26.8077
2023-04-30T09:08:49.870Z,25.9917
2023-04-30T09:09:52.171Z,27.1385
2023-04-30T09:10:54.427Z,25.5154
2023-04-30T09:11:56.761Z,27.5615
2023-04-30T09:12:59.097Z,27.6417
2023-04-30T09:14:01.463Z,27.9308
2023-04-30T09:15:03.914Z,27.6231
2023-04-30T09:16:06.160Z,28.6750
2023-04-30T09:17:08.439Z,27.5923
2023-04-30T09:18:10.895Z,25.7462
2023-04-30T09:19:13.127Z,26.0385
2023-04-30T09:20:15.474Z,25.2538
2023-04-30T09:21:17.798Z,26.2231
2023-04-30T09:22:20.137Z,23.6846
2023-04-30T09:23:22.488Z,24.3385
2023-04-30T09:24:24.869Z,25.7077
2023-04-30T09:25:27.173Z,23.9750
2023-04-30T09:26:29.519Z,24.8692
2023-04-30T09:27:31.842Z,22.3308
2023-04-30T09:28:34.167Z,22.9923
2023-04-30T09:29:36.519Z,24.5923
2023-04-30T09:30:38.960Z,24.5000
2023-04-30T09:31:41.214Z,24.2923
2023-04-30T09:32:43.542Z,23.3154
2023-04-30T09:33:46.040Z,22.4923
2023-04-30T09:34:48.215Z,20.1417
2023-04-30T09:35:50.531Z,18.7462
2023-04-30T09:36:52.908Z,20.1667
2023-04-30T09:37:55.244Z,19.3000
2023-04-30T09:38:57.558Z,18.5462
2023-04-30T09:39:59.893Z,20.4923
2023-04-30T09:41:02.230Z,19.0231
2023-04-30T09:42:04.571Z,18.2385
2023-04-30T09:43:06.946Z,16.3615
2023-04-30T09:44:09.291Z,15.8077
2023-04-30T09:45:11.590Z,13.9231
2023-04-30T09:46:13.959Z,15.3923
2023-04-30T09:47:16.267Z,15.1154
2023-04-30T09:48:18.685Z,16.3154
2023-04-30T09:49:20.979Z,14.7692
2023-04-30T09:50:23.350Z,14.0846
2023-04-30T09:51:25.652Z,11.2538
2023-04-30T09:52:28.005Z,9.7385
2023-04-30T09:53:30.314Z,8.7308
2023-04-30T09:54:32.697Z,8.0385
2023-04-30T09:55:35.032Z,8.1154
2023-04-30T09:56:37.339Z,7.2538
2023-04-30T09:57:39.674Z,7.2750
2023-04-30T09:58:42.016Z,9.0923
2023-04-30T09:59:44.365Z,10.9750
2023-04-30T10:00:46.907Z,12.8154
2023-04-30T10:01:49.047Z,11.1833
2023-04-30T10:02:51.414Z,9.6154
2023-04-30T10:03:54.042Z,10.1692
2023-04-30T10:04:56.115Z,7.7083
2023-04-30T10:05:58.431Z,6.8846
2023-04-30T10:07:00.822Z,5.9154
2023-04-30T10:08:03.174Z,5.2462
2023-04-30T10:09:05.546Z,5.1250
2023-04-30T10:10:07.892Z,5.4077
2023-04-30T10:11:10.199Z,5.2692
2023-04-30T10:12:12.536Z,4.6000
2023-04-30T10:13:15.165Z,4.4077
2023-04-30T10:14:17.227Z,4.4583
2023-04-30T10:15:19.567Z,4.8077
2023-04-30T10:16:22.967Z,4.5308
2023-04-30T10:17:24.280Z,4.7250
2023-04-30T10:18:26.609Z,4.2462
2023-04-30T10:19:28.963Z,4.2615
2023-04-30T10:20:32.024Z,4.1923
2023-04-30T10:21:33.629Z,4.6167
2023-04-30T10:22:36.020Z,4.3154
2023-04-30T10:23:38.328Z,4.1077
2023-04-30T10:24:40.670Z,4.0923
2023-04-30T10:25:43.076Z,3.7462
2023-04-30T10:26:45.375Z,3.7077
2023-04-30T10:27:47.704Z,3.9231
2023-04-30T10:28:50.120Z,4.1462
2023-04-30T10:29:52.438Z,4.0154
2023-04-30T10:30:54.773Z,3.9308
2023-04-30T10:31:57.155Z,3.9615
2023-04-30T10:32:59.500Z,3.7462
2023-04-30T10:34:01.789Z,3.7154
2023-04-30T10:35:04.166Z,3.7154
2023-04-30T10:36:06.515Z,3.7077
2023-04-30T10:37:08.939Z,3.6231
2023-04-30T10:38:11.274Z,3.6154
2023-04-30T10:39:13.580Z,3.3154
2023-04-30T10:40:15.855Z,3.3769
2023-04-30T10:41:18.208Z,3.5769
2023-04-30T10:42:20.545Z,3.5308
2023-04-30T10:43:22.949Z,3.6769
2023-04-30T10:44:25.240Z,3.4231
2023-04-30T10:45:27.589Z,3.3923
2023-04-30T10:46:29.965Z,3.0769
2023-04-30T10:47:32.314Z,3.0000
2023-04-30T10:48:34.625Z,3.2769
2023-04-30T10:49:36.975Z,3.7385
2023-04-30T10:50:39.301Z,3.3583
2023-04-30T10:51:41.699Z,3.2846
2023-04-30T10:52:43.989Z,3.1462
2023-04-30T10:53:46.348Z,2.9692
2023-04-30T10:54:48.699Z,2.9462
2023-04-30T10:55:51.037Z,3.1000
2023-04-30T10:56:53.406Z,3.5769
2023-04-30T10:57:55.886Z,3.3385
2023-04-30T10:58:58.072Z,3.1846
2023-04-30T11:00:00.419Z,3.0692
2023-04-30T11:01:02.922Z,3.0385
2023-04-30T11:02:05.120Z,3.0500
2023-04-30T11:03:07.841Z,2.8750
2023-04-30T11:04:09.790Z,2.8750
2023-04-30T11:05:12.817Z,2.8231
2023-04-30T11:06:14.552Z,2.6583
2023-04-30T11:07:16.888Z,2.6077
2023-04-30T11:08:19.165Z,2.7769
2023-04-30T11:09:21.502Z,2.6385
2023-04-30T11:10:23.920Z,2.7692
2023-04-30T11:11:26.191Z,2.8077
2023-04-30T11:12:28.728Z,2.7846
2023-04-30T11:13:30.925Z,2.8333
2023-04-30T11:14:33.218Z,2.5308
2023-04-30T11:15:35.635Z,2.3385
2023-04-30T11:16:37.955Z,2.7250
2023-04-30T11:17:40.323Z,2.3692
2023-04-30T11:18:42.601Z,2.4000
2023-04-30T11:19:44.934Z,2.5308
2023-04-30T11:20:47.314Z,2.6615
2023-04-30T11:21:49.685Z,2.5692
2023-04-30T11:22:52.017Z,2.6308
2023-04-30T11:23:54.426Z,2.4231
2023-04-30T11:24:56.644Z,2.5077
2023-04-30T11:25:58.989Z,2.4333
2023-04-30T11:27:01.330Z,2.6615
2023-04-30T11:28:03.692Z,2.7667
2023-04-30T11:29:06.225Z,2.5769
2023-04-30T11:30:08.389Z,2.5846
2023-04-30T11:31:10.719Z,2.3583
2023-04-30T11:32:13.046Z,2.7462
2023-04-30T11:33:15.402Z,2.5769
2023-04-30T11:34:17.836Z,2.5750
2023-04-30T11:35:20.091Z,2.2923
2023-04-30T11:36:22.421Z,2.4500
2023-04-30T11:37:24.750Z,2.5385
2023-04-30T11:38:27.139Z,2.6462
2023-04-30T11:39:29.440Z,2.5462
2023-04-30T11:40:31.779Z,2.5154
2023-04-30T11:41:34.111Z,2.5154
2023-04-30T11:42:36.558Z,2.6692
2023-04-30T11:43:38.863Z,2.5769
2023-04-30T11:44:41.174Z,2.3615
2023-04-30T11:45:43.475Z,2.4385
2023-04-30T11:46:45.893Z,2.4692
2023-04-30T11:47:48.303Z,2.6462
2023-04-30T11:48:50.505Z,2.6692
2023-04-30T11:49:53.295Z,2.4615
2023-04-30T11:50:55.213Z,2.3583
2023-04-30T11:51:57.545Z,2.3308
2023-04-30T11:52:59.854Z,2.5077
2023-04-30T11:54:02.335Z,2.4000
2023-04-30T11:55:04.518Z,2.3833
2023-04-30T11:56:06.947Z,2.3083
2023-04-30T11:57:09.192Z,2.3769
2023-04-30T11:58:11.617Z,2.3308
2023-04-30T11:59:13.888Z,2.1091
2023-04-30T12:00:16.282Z,2.3000
2023-04-30T12:01:18.571Z,2.2615
2023-04-30T12:02:21.023Z,2.4385
2023-04-30T12:03:23.302Z,2.5692
2023-04-30T12:04:25.623Z,2.4462
2023-04-30T12:05:27.970Z,2.6077
2023-04-30T12:06:30.362Z,2.4308
2023-04-30T12:07:32.602Z,2.2615
2023-04-30T12:08:34.979Z,2.3308
2023-04-30T12:09:37.292Z,2.3077
2023-04-30T12:10:39.632Z,2.5077
2023-04-30T12:11:41.987Z,2.3308
2023-04-30T12:12:44.329Z,2.2308
2023-04-30T12:13:46.657Z,2.2231
2023-04-30T12:14:49.167Z,2.2000
2023-04-30T12:15:51.359Z,2.1917
2023-04-30T12:16:53.721Z,2.2846
2023-04-30T12:17:56.362Z,2.0846
2023-04-30T12:18:58.398Z,2.2250
2023-04-30T12:20:00.715Z,2.2077
2023-04-30T12:21:03.079Z,2.2000
2023-04-30T12:22:05.408Z,2.3692
2023-04-30T12:23:07.797Z,2.1417
2023-04-30T12:24:10.096Z,2.2385
2023-04-30T12:25:12.427Z,2.1615
2023-04-30T12:26:14.981Z,2.1583
2023-04-30T12:27:17.136Z,2.3667
2023-04-30T12:28:19.457Z,2.1231
2023-04-30T12:29:21.805Z,2.1692
2023-04-30T12:30:24.701Z,2.3615
2023-04-30T12:31:26.492Z,2.1417
2023-04-30T12:32:28.968Z,2.2000
2023-04-30T12:33:31.165Z,2.2000
2023-04-30T12:34:33.979Z,2.0769
2023-04-30T12:35:35.960Z,2.0583
2023-04-30T12:36:38.216Z,2.2231
2023-04-30T12:37:40.586Z,2.2385
2023-04-30T12:38:42.933Z,2.3077
2023-04-30T12:39:45.213Z,2.1462